sensor_id;sensor_type;location;lat;lon;timestamp;P1;durP1;ratioP1;P2;durP2;ratioP2
59074;SDS011;44860;53.020;6.738;2023-12-28T00:00:42;6.90;;;3.97;;
59074;SDS011;44860;53.020;6.738;2023-12-28T00:03:08;5.68;;;4.10;;
59074;SDS011;44860;53.020;6.738;2023-12-28T00:05:33;6.05;;;3.97;;
59074;SDS011;44860;53.020;6.738;2023-12-28T00:07:59;5.97;;;3.90;;
59074;SDS011;44860;53.020;6.738;2023-12-28T00:10:25;6.35;;;3.90;;
59074;SDS011;44860;53.020;6.738;2023-12-28T00:12:52;6.63;;;4.35;;
59074;SDS011;44860;53.020;6.738;2023-12-28T00:15:18;8.15;;;4.40;;
59074;SDS011;44860;53.020;6.738;2023-12-28T00:17:43;5.55;;;4.38;;
59074;SDS011;44860;53.020;6.738;2023-12-28T00:20:09;6.68;;;4.30;;
59074;SDS011;44860;53.020;6.738;2023-12-28T00:22:35;6.05;;;4.20;;
59074;SDS011;44860;53.020;6.738;2023-12-28T00:25:02;5.88;;;4.60;;
59074;SDS011;44860;53.020;6.738;2023-12-28T00:27:29;6.85;;;3.97;;
59074;SDS011;44860;53.020;6.738;2023-12-28T00:29:55;8.55;;;4.80;;
59074;SDS011;44860;53.020;6.738;2023-12-28T00:32:20;8.50;;;4.93;;
59074;SDS011;44860;53.020;6.738;2023-12-28T00:34:46;7.28;;;4.38;;
59074;SDS011;44860;53.020;6.738;2023-12-28T00:37:11;6.53;;;4.57;;
59074;SDS011;44860;53.020;6.738;2023-12-28T00:39:37;8.38;;;4.70;;
59074;SDS011;44860;53.020;6.738;2023-12-28T00:42:04;7.32;;;4.38;;
59074;SDS011;44860;53.020;6.738;2023-12-28T00:44:30;10.20;;;5.20;;
59074;SDS011;44860;53.020;6.738;2023-12-28T00:46:55;5.93;;;4.65;;
59074;SDS011;44860;53.020;6.738;2023-12-28T00:49:21;7.20;;;4.40;;
59074;SDS011;44860;53.020;6.738;2023-12-28T00:51:46;8.18;;;4.85;;
59074;SDS011;44860;53.020;6.738;2023-12-28T00:54:12;7.18;;;4.75;;
59074;SDS011;44860;53.020;6.738;2023-12-28T00:56:38;7.93;;;4.72;;
59074;SDS011;44860;53.020;6.738;2023-12-28T00:59:03;8.30;;;5.03;;
59074;SDS011;44860;53.020;6.738;2023-12-28T01:01:29;6.53;;;4.82;;
59074;SDS011;44860;53.020;6.738;2023-12-28T01:03:57;8.00;;;4.40;;
59074;SDS011;44860;53.020;6.738;2023-12-28T01:06:23;8.98;;;4.53;;
59074;SDS011;44860;53.020;6.738;2023-12-28T01:08:54;6.47;;;4.30;;
59074;SDS011;44860;53.020;6.738;2023-12-28T01:11:20;8.40;;;4.53;;
59074;SDS011;44860;53.020;6.738;2023-12-28T01:13:46;9.18;;;4.90;;
59074;SDS011;44860;53.020;6.738;2023-12-28T01:16:14;10.65;;;5.28;;
59074;SDS011;44860;53.020;6.738;2023-12-28T01:18:40;8.30;;;4.70;;
59074;SDS011;44860;53.020;6.738;2023-12-28T01:21:06;6.68;;;4.07;;
59074;SDS011;44860;53.020;6.738;2023-12-28T01:23:32;10.20;;;4.90;;
59074;SDS011;44860;53.020;6.738;2023-12-28T01:25:57;10.73;;;4.70;;
59074;SDS011;44860;53.020;6.738;2023-12-28T01:28:24;11.52;;;4.90;;
59074;SDS011;44860;53.020;6.738;2023-12-28T01:30:50;9.48;;;4.90;;
59074;SDS011;44860;53.020;6.738;2023-12-28T01:33:16;10.68;;;4.70;;
59074;SDS011;44860;53.020;6.738;2023-12-28T01:35:42;8.88;;;4.40;;
59074;SDS011;44860;53.020;6.738;2023-12-28T01:38:07;9.02;;;4.63;;
59074;SDS011;44860;53.020;6.738;2023-12-28T01:40:33;8.30;;;4.40;;
59074;SDS011;44860;53.020;6.738;2023-12-28T01:42:59;11.43;;;4.75;;
59074;SDS011;44860;53.020;6.738;2023-12-28T01:45:25;10.07;;;4.88;;
59074;SDS011;44860;53.020;6.738;2023-12-28T01:47:50;8.88;;;4.70;;
59074;SDS011;44860;53.020;6.738;2023-12-28T01:50:18;10.07;;;4.53;;
59074;SDS011;44860;53.020;6.738;2023-12-28T01:52:45;11.10;;;4.70;;
59074;SDS011;44860;53.020;6.738;2023-12-28T01:55:12;10.20;;;4.50;;
59074;SDS011;44860;53.020;6.738;2023-12-28T01:57:38;7.75;;;4.38;;
59074;SDS011;44860;53.020;6.738;2023-12-28T02:00:04;10.60;;;4.45;;
59074;SDS011;44860;53.020;6.738;2023-12-28T02:02:31;10.18;;;4.53;;
59074;SDS011;44860;53.020;6.738;2023-12-28T02:04:57;12.52;;;4.70;;
59074;SDS011;44860;53.020;6.738;2023-12-28T02:07:26;9.00;;;4.82;;
59074;SDS011;44860;53.020;6.738;2023-12-28T02:09:53;11.10;;;4.97;;
59074;SDS011;44860;53.020;6.738;2023-12-28T02:12:18;10.45;;;4.63;;
59074;SDS011;44860;53.020;6.738;2023-12-28T02:14:44;12.27;;;4.47;;
59074;SDS011;44860;53.020;6.738;2023-12-28T02:17:16;21.65;;;5.00;;
59074;SDS011;44860;53.020;6.738;2023-12-28T02:19:54;9.38;;;4.40;;
59074;SDS011;44860;53.020;6.738;2023-12-28T02:22:21;15.43;;;4.60;;
59074;SDS011;44860;53.020;6.738;2023-12-28T02:25:00;13.93;;;4.57;;
59074;SDS011;44860;53.020;6.738;2023-12-28T02:27:26;12.38;;;4.30;;
59074;SDS011;44860;53.020;6.738;2023-12-28T02:29:51;9.10;;;3.78;;
59074;SDS011;44860;53.020;6.738;2023-12-28T02:32:19;11.32;;;4.13;;
59074;SDS011;44860;53.020;6.738;2023-12-28T02:34:50;11.75;;;3.90;;
59074;SDS011;44860;53.020;6.738;2023-12-28T02:37:24;13.23;;;4.28;;
59074;SDS011;44860;53.020;6.738;2023-12-28T02:39:51;9.23;;;3.78;;
59074;SDS011;44860;53.020;6.738;2023-12-28T02:42:18;15.02;;;3.92;;
59074;SDS011;44860;53.020;6.738;2023-12-28T02:44:44;9.68;;;3.88;;
59074;SDS011;44860;53.020;6.738;2023-12-28T02:47:09;13.48;;;3.85;;
59074;SDS011;44860;53.020;6.738;2023-12-28T02:49:35;11.82;;;3.95;;
59074;SDS011;44860;53.020;6.738;2023-12-28T02:52:01;15.70;;;3.97;;
59074;SDS011;44860;53.020;6.738;2023-12-28T02:54:26;12.88;;;4.20;;
59074;SDS011;44860;53.020;6.738;2023-12-28T02:56:52;12.05;;;3.65;;
59074;SDS011;44860;53.020;6.738;2023-12-28T02:59:18;13.32;;;3.92;;
59074;SDS011;44860;53.020;6.738;2023-12-28T03:01:43;13.02;;;3.35;;
59074;SDS011;44860;53.020;6.738;2023-12-28T03:04:09;11.20;;;3.75;;
59074;SDS011;44860;53.020;6.738;2023-12-28T03:06:34;10.05;;;3.42;;
59074;SDS011;44860;53.020;6.738;2023-12-28T03:09:00;9.80;;;3.70;;
59074;SDS011;44860;53.020;6.738;2023-12-28T03:11:26;11.10;;;3.67;;
59074;SDS011;44860;53.020;6.738;2023-12-28T03:13:51;14.73;;;3.67;;
59074;SDS011;44860;53.020;6.738;2023-12-28T03:16:17;10.02;;;3.35;;
59074;SDS011;44860;53.020;6.738;2023-12-28T03:18:43;14.32;;;3.45;;
59074;SDS011;44860;53.020;6.738;2023-12-28T03:21:09;13.90;;;3.38;;
59074;SDS011;44860;53.020;6.738;2023-12-28T03:23:34;11.85;;;3.22;;
59074;SDS011;44860;53.020;6.738;2023-12-28T03:26:00;10.32;;;3.42;;
59074;SDS011;44860;53.020;6.738;2023-12-28T03:28:26;11.00;;;3.15;;
59074;SDS011;44860;53.020;6.738;2023-12-28T03:30:51;11.38;;;3.35;;
59074;SDS011;44860;53.020;6.738;2023-12-28T03:33:17;9.88;;;3.30;;
59074;SDS011;44860;53.020;6.738;2023-12-28T03:35:43;9.88;;;2.97;;
59074;SDS011;44860;53.020;6.738;2023-12-28T03:38:09;11.90;;;3.65;;
59074;SDS011;44860;53.020;6.738;2023-12-28T03:40:34;9.90;;;3.13;;
59074;SDS011;44860;53.020;6.738;2023-12-28T03:43:00;8.00;;;2.90;;
59074;SDS011;44860;53.020;6.738;2023-12-28T03:45:25;11.57;;;3.38;;
59074;SDS011;44860;53.020;6.738;2023-12-28T03:47:51;12.05;;;3.20;;
59074;SDS011;44860;53.020;6.738;2023-12-28T03:50:17;12.40;;;3.83;;
59074;SDS011;44860;53.020;6.738;2023-12-28T03:52:42;11.50;;;3.53;;
59074;SDS011;44860;53.020;6.738;2023-12-28T03:55:08;10.80;;;3.08;;
59074;SDS011;44860;53.020;6.738;2023-12-28T03:57:34;12.63;;;3.30;;
59074;SDS011;44860;53.020;6.738;2023-12-28T03:59:59;9.93;;;3.58;;
59074;SDS011;44860;53.020;6.738;2023-12-28T04:02:25;11.80;;;3.25;;
59074;SDS011;44860;53.020;6.738;2023-12-28T04:04:55;9.27;;;3.10;;
59074;SDS011;44860;53.020;6.738;2023-12-28T04:07:23;12.13;;;3.40;;
59074;SDS011;44860;53.020;6.738;2023-12-28T04:09:49;9.75;;;3.08;;
59074;SDS011;44860;53.020;6.738;2023-12-28T04:12:15;12.20;;;4.03;;
59074;SDS011;44860;53.020;6.738;2023-12-28T04:14:40;11.80;;;3.10;;
59074;SDS011;44860;53.020;6.738;2023-12-28T04:17:06;10.73;;;3.22;;
59074;SDS011;44860;53.020;6.738;2023-12-28T04:19:31;11.23;;;3.10;;
59074;SDS011;44860;53.020;6.738;2023-12-28T04:21:57;14.88;;;3.40;;
59074;SDS011;44860;53.020;6.738;2023-12-28T04:24:23;12.70;;;3.33;;
59074;SDS011;44860;53.020;6.738;2023-12-28T04:26:48;10.90;;;3.72;;
59074;SDS011;44860;53.020;6.738;2023-12-28T04:29:14;13.95;;;3.60;;
59074;SDS011;44860;53.020;6.738;2023-12-28T04:31:40;13.80;;;3.45;;
59074;SDS011;44860;53.020;6.738;2023-12-28T04:34:09;13.65;;;3.38;;
59074;SDS011;44860;53.020;6.738;2023-12-28T04:36:41;11.75;;;3.10;;
59074;SDS011;44860;53.020;6.738;2023-12-28T04:39:10;11.43;;;3.08;;
59074;SDS011;44860;53.020;6.738;2023-12-28T04:41:37;12.05;;;3.67;;
59074;SDS011;44860;53.020;6.738;2023-12-28T04:44:02;12.82;;;3.05;;
59074;SDS011;44860;53.020;6.738;2023-12-28T04:46:28;14.85;;;3.13;;
59074;SDS011;44860;53.020;6.738;2023-12-28T04:48:54;17.40;;;3.50;;
59074;SDS011;44860;53.020;6.738;2023-12-28T04:51:19;13.38;;;3.38;;
59074;SDS011;44860;53.020;6.738;2023-12-28T04:53:45;9.52;;;2.85;;
59074;SDS011;44860;53.020;6.738;2023-12-28T04:56:11;10.93;;;3.33;;
59074;SDS011;44860;53.020;6.738;2023-12-28T04:58:36;15.25;;;3.50;;
59074;SDS011;44860;53.020;6.738;2023-12-28T05:01:02;10.60;;;3.20;;
59074;SDS011;44860;53.020;6.738;2023-12-28T05:03:28;12.27;;;3.28;;
59074;SDS011;44860;53.020;6.738;2023-12-28T05:05:53;13.98;;;3.50;;
59074;SDS011;44860;53.020;6.738;2023-12-28T05:08:19;15.07;;;3.22;;
59074;SDS011;44860;53.020;6.738;2023-12-28T05:10:45;12.02;;;3.10;;
59074;SDS011;44860;53.020;6.738;2023-12-28T05:13:10;13.45;;;3.55;;
59074;SDS011;44860;53.020;6.738;2023-12-28T05:15:36;16.20;;;3.30;;
59074;SDS011;44860;53.020;6.738;2023-12-28T05:18:01;16.38;;;3.63;;
59074;SDS011;44860;53.020;6.738;2023-12-28T05:20:27;12.82;;;3.30;;
59074;SDS011;44860;53.020;6.738;2023-12-28T05:22:53;14.95;;;3.50;;
59074;SDS011;44860;53.020;6.738;2023-12-28T05:25:18;14.80;;;3.13;;
59074;SDS011;44860;53.020;6.738;2023-12-28T05:27:45;15.40;;;3.45;;
59074;SDS011;44860;53.020;6.738;2023-12-28T05:30:11;13.77;;;3.15;;
59074;SDS011;44860;53.020;6.738;2023-12-28T05:32:37;14.65;;;3.78;;
59074;SDS011;44860;53.020;6.738;2023-12-28T05:35:02;12.68;;;2.95;;
59074;SDS011;44860;53.020;6.738;2023-12-28T05:37:28;18.67;;;3.53;;
59074;SDS011;44860;53.020;6.738;2023-12-28T05:39:54;12.80;;;3.58;;
59074;SDS011;44860;53.020;6.738;2023-12-28T05:42:20;15.55;;;3.63;;
59074;SDS011;44860;53.020;6.738;2023-12-28T05:44:46;14.88;;;3.60;;
59074;SDS011;44860;53.020;6.738;2023-12-28T05:47:11;15.98;;;3.15;;
59074;SDS011;44860;53.020;6.738;2023-12-28T05:49:37;15.95;;;3.30;;
59074;SDS011;44860;53.020;6.738;2023-12-28T05:52:03;13.52;;;3.25;;
59074;SDS011;44860;53.020;6.738;2023-12-28T05:54:29;14.23;;;3.60;;
59074;SDS011;44860;53.020;6.738;2023-12-28T05:56:55;14.00;;;3.08;;
59074;SDS011;44860;53.020;6.738;2023-12-28T05:59:20;16.15;;;3.75;;
59074;SDS011;44860;53.020;6.738;2023-12-28T06:01:46;16.42;;;3.42;;
59074;SDS011;44860;53.020;6.738;2023-12-28T06:04:12;14.18;;;3.50;;
59074;SDS011;44860;53.020;6.738;2023-12-28T06:06:38;13.90;;;3.40;;
59074;SDS011;44860;53.020;6.738;2023-12-28T06:09:04;14.90;;;3.10;;
59074;SDS011;44860;53.020;6.738;2023-12-28T06:11:29;17.15;;;3.22;;
59074;SDS011;44860;53.020;6.738;2023-12-28T06:13:55;17.05;;;3.60;;
59074;SDS011;44860;53.020;6.738;2023-12-28T06:16:21;15.45;;;3.13;;
59074;SDS011;44860;53.020;6.738;2023-12-28T06:18:46;16.13;;;3.47;;
59074;SDS011;44860;53.020;6.738;2023-12-28T06:21:12;16.33;;;2.97;;
59074;SDS011;44860;53.020;6.738;2023-12-28T06:23:37;13.73;;;3.10;;
59074;SDS011;44860;53.020;6.738;2023-12-28T06:26:04;16.58;;;3.38;;
59074;SDS011;44860;53.020;6.738;2023-12-28T06:28:33;16.30;;;3.33;;
59074;SDS011;44860;53.020;6.738;2023-12-28T06:30:59;15.98;;;3.40;;
59074;SDS011;44860;53.020;6.738;2023-12-28T06:33:26;14.38;;;3.35;;
59074;SDS011;44860;53.020;6.738;2023-12-28T06:35:53;18.30;;;3.58;;
59074;SDS011;44860;53.020;6.738;2023-12-28T06:38:18;13.23;;;3.00;;
59074;SDS011;44860;53.020;6.738;2023-12-28T06:40:44;16.52;;;3.20;;
59074;SDS011;44860;53.020;6.738;2023-12-28T06:43:09;19.15;;;3.33;;
59074;SDS011;44860;53.020;6.738;2023-12-28T06:45:35;21.33;;;3.08;;
59074;SDS011;44860;53.020;6.738;2023-12-28T06:48:01;19.15;;;3.03;;
59074;SDS011;44860;53.020;6.738;2023-12-28T06:50:26;15.75;;;3.67;;
59074;SDS011;44860;53.020;6.738;2023-12-28T06:52:52;13.93;;;3.50;;
59074;SDS011;44860;53.020;6.738;2023-12-28T06:55:18;17.65;;;3.30;;
59074;SDS011;44860;53.020;6.738;2023-12-28T06:57:43;14.50;;;3.15;;
59074;SDS011;44860;53.020;6.738;2023-12-28T07:00:09;14.20;;;3.22;;
59074;SDS011;44860;53.020;6.738;2023-12-28T07:02:35;14.05;;;3.22;;
59074;SDS011;44860;53.020;6.738;2023-12-28T07:05:01;11.00;;;3.00;;
59074;SDS011;44860;53.020;6.738;2023-12-28T07:07:29;17.95;;;3.88;;
59074;SDS011;44860;53.020;6.738;2023-12-28T07:09:54;15.85;;;3.47;;
59074;SDS011;44860;53.020;6.738;2023-12-28T07:12:20;17.23;;;3.30;;
59074;SDS011;44860;53.020;6.738;2023-12-28T07:14:46;17.23;;;3.30;;
59074;SDS011;44860;53.020;6.738;2023-12-28T07:17:11;18.35;;;3.83;;
59074;SDS011;44860;53.020;6.738;2023-12-28T07:19:42;15.75;;;3.33;;
59074;SDS011;44860;53.020;6.738;2023-12-28T07:22:08;16.38;;;3.15;;
59074;SDS011;44860;53.020;6.738;2023-12-28T07:24:34;15.85;;;3.50;;
59074;SDS011;44860;53.020;6.738;2023-12-28T07:27:00;12.63;;;2.85;;
59074;SDS011;44860;53.020;6.738;2023-12-28T07:29:26;19.67;;;3.75;;
59074;SDS011;44860;53.020;6.738;2023-12-28T07:31:53;16.40;;;3.85;;
59074;SDS011;44860;53.020;6.738;2023-12-28T07:34:19;20.13;;;3.65;;
59074;SDS011;44860;53.020;6.738;2023-12-28T07:36:44;16.13;;;3.45;;
59074;SDS011;44860;53.020;6.738;2023-12-28T07:39:11;16.90;;;3.47;;
59074;SDS011;44860;53.020;6.738;2023-12-28T07:41:37;19.10;;;3.70;;
59074;SDS011;44860;53.020;6.738;2023-12-28T07:44:03;18.55;;;3.95;;
59074;SDS011;44860;53.020;6.738;2023-12-28T07:46:29;18.05;;;3.80;;
59074;SDS011;44860;53.020;6.738;2023-12-28T07:48:55;19.10;;;3.80;;
59074;SDS011;44860;53.020;6.738;2023-12-28T07:51:21;18.80;;;3.50;;
59074;SDS011;44860;53.020;6.738;2023-12-28T07:53:47;16.38;;;3.55;;
59074;SDS011;44860;53.020;6.738;2023-12-28T07:56:13;18.40;;;3.42;;
59074;SDS011;44860;53.020;6.738;2023-12-28T07:58:38;20.65;;;4.28;;
59074;SDS011;44860;53.020;6.738;2023-12-28T08:01:09;20.60;;;3.63;;
59074;SDS011;44860;53.020;6.738;2023-12-28T08:03:36;22.75;;;3.90;;
59074;SDS011;44860;53.020;6.738;2023-12-28T08:06:01;20.15;;;3.85;;
59074;SDS011;44860;53.020;6.738;2023-12-28T08:08:27;19.58;;;4.13;;
59074;SDS011;44860;53.020;6.738;2023-12-28T08:10:53;18.23;;;3.92;;
59074;SDS011;44860;53.020;6.738;2023-12-28T08:13:18;23.15;;;4.45;;
59074;SDS011;44860;53.020;6.738;2023-12-28T08:15:44;23.73;;;5.15;;
59074;SDS011;44860;53.020;6.738;2023-12-28T08:18:11;25.67;;;4.78;;
59074;SDS011;44860;53.020;6.738;2023-12-28T08:20:37;25.58;;;4.32;;
59074;SDS011;44860;53.020;6.738;2023-12-28T08:23:03;18.40;;;4.18;;
59074;SDS011;44860;53.020;6.738;2023-12-28T08:25:28;19.05;;;3.75;;
59074;SDS011;44860;53.020;6.738;2023-12-28T08:27:54;21.50;;;4.38;;
59074;SDS011;44860;53.020;6.738;2023-12-28T08:30:20;20.13;;;3.63;;
59074;SDS011;44860;53.020;6.738;2023-12-28T08:32:46;17.98;;;3.80;;
59074;SDS011;44860;53.020;6.738;2023-12-28T08:35:12;22.55;;;4.85;;
59074;SDS011;44860;53.020;6.738;2023-12-28T08:37:37;22.70;;;4.22;;
59074;SDS011;44860;53.020;6.738;2023-12-28T08:40:03;22.30;;;4.45;;
59074;SDS011;44860;53.020;6.738;2023-12-28T08:42:29;21.33;;;4.35;;
59074;SDS011;44860;53.020;6.738;2023-12-28T08:44:55;20.25;;;4.35;;
59074;SDS011;44860;53.020;6.738;2023-12-28T08:47:20;21.23;;;4.47;;
59074;SDS011;44860;53.020;6.738;2023-12-28T08:49:47;29.48;;;5.00;;
59074;SDS011;44860;53.020;6.738;2023-12-28T08:52:13;23.20;;;4.45;;
59074;SDS011;44860;53.020;6.738;2023-12-28T08:54:39;29.20;;;5.50;;
59074;SDS011;44860;53.020;6.738;2023-12-28T08:57:06;21.48;;;4.88;;
59074;SDS011;44860;53.020;6.738;2023-12-28T08:59:35;24.63;;;5.20;;
59074;SDS011;44860;53.020;6.738;2023-12-28T09:02:01;23.60;;;4.43;;
59074;SDS011;44860;53.020;6.738;2023-12-28T09:04:27;24.65;;;5.13;;
59074;SDS011;44860;53.020;6.738;2023-12-28T09:06:52;23.05;;;4.18;;
59074;SDS011;44860;53.020;6.738;2023-12-28T09:09:18;16.25;;;4.47;;
59074;SDS011;44860;53.020;6.738;2023-12-28T09:11:43;24.23;;;5.15;;
59074;SDS011;44860;53.020;6.738;2023-12-28T09:14:09;21.25;;;4.50;;
59074;SDS011;44860;53.020;6.738;2023-12-28T09:16:35;23.15;;;4.65;;
59074;SDS011;44860;53.020;6.738;2023-12-28T09:19:00;21.33;;;4.43;;
59074;SDS011;44860;53.020;6.738;2023-12-28T09:21:26;23.67;;;4.47;;
59074;SDS011;44860;53.020;6.738;2023-12-28T09:23:52;25.48;;;4.25;;
59074;SDS011;44860;53.020;6.738;2023-12-28T09:26:18;17.13;;;4.10;;
59074;SDS011;44860;53.020;6.738;2023-12-28T09:28:44;23.45;;;4.05;;
59074;SDS011;44860;53.020;6.738;2023-12-28T09:31:10;22.38;;;4.65;;
59074;SDS011;44860;53.020;6.738;2023-12-28T09:33:36;23.63;;;4.07;;
59074;SDS011;44860;53.020;6.738;2023-12-28T09:36:04;23.42;;;4.25;;
59074;SDS011;44860;53.020;6.738;2023-12-28T09:38:31;21.85;;;4.28;;
59074;SDS011;44860;53.020;6.738;2023-12-28T09:40:57;22.17;;;4.60;;
59074;SDS011;44860;53.020;6.738;2023-12-28T09:43:37;24.83;;;4.50;;
59074;SDS011;44860;53.020;6.738;2023-12-28T09:46:10;19.35;;;4.65;;
59074;SDS011;44860;53.020;6.738;2023-12-28T09:48:39;19.80;;;4.03;;
59074;SDS011;44860;53.020;6.738;2023-12-28T09:51:05;26.77;;;4.72;;
59074;SDS011;44860;53.020;6.738;2023-12-28T09:53:31;22.58;;;4.50;;
59074;SDS011;44860;53.020;6.738;2023-12-28T09:55:57;22.70;;;4.45;;
59074;SDS011;44860;53.020;6.738;2023-12-28T09:58:23;19.33;;;3.85;;
59074;SDS011;44860;53.020;6.738;2023-12-28T10:00:50;21.85;;;3.97;;
59074;SDS011;44860;53.020;6.738;2023-12-28T10:03:16;25.13;;;4.50;;
59074;SDS011;44860;53.020;6.738;2023-12-28T10:05:43;22.27;;;5.10;;
59074;SDS011;44860;53.020;6.738;2023-12-28T10:08:12;26.13;;;4.35;;
59074;SDS011;44860;53.020;6.738;2023-12-28T10:10:39;20.95;;;4.20;;
59074;SDS011;44860;53.020;6.738;2023-12-28T10:13:06;19.92;;;4.35;;
59074;SDS011;44860;53.020;6.738;2023-12-28T10:15:32;22.00;;;4.47;;
59074;SDS011;44860;53.020;6.738;2023-12-28T10:17:59;21.20;;;4.00;;
59074;SDS011;44860;53.020;6.738;2023-12-28T10:20:28;26.25;;;4.90;;
59074;SDS011;44860;53.020;6.738;2023-12-28T10:22:54;23.38;;;4.07;;
59074;SDS011;44860;53.020;6.738;2023-12-28T10:25:20;19.83;;;4.43;;
59074;SDS011;44860;53.020;6.738;2023-12-28T10:27:49;20.75;;;4.20;;
59074;SDS011;44860;53.020;6.738;2023-12-28T10:30:17;20.92;;;4.00;;
59074;SDS011;44860;53.020;6.738;2023-12-28T10:32:42;24.73;;;5.25;;
59074;SDS011;44860;53.020;6.738;2023-12-28T10:35:08;19.92;;;4.35;;
59074;SDS011;44860;53.020;6.738;2023-12-28T10:37:34;24.42;;;4.80;;
59074;SDS011;44860;53.020;6.738;2023-12-28T10:40:06;22.35;;;4.07;;
59074;SDS011;44860;53.020;6.738;2023-12-28T10:42:33;23.95;;;4.45;;
59074;SDS011;44860;53.020;6.738;2023-12-28T10:45:05;20.27;;;4.95;;
59074;SDS011;44860;53.020;6.738;2023-12-28T10:47:39;23.17;;;4.63;;
59074;SDS011;44860;53.020;6.738;2023-12-28T10:50:08;23.52;;;4.68;;
59074;SDS011;44860;53.020;6.738;2023-12-28T10:52:36;25.95;;;4.53;;
59074;SDS011;44860;53.020;6.738;2023-12-28T10:55:17;19.65;;;4.30;;
59074;SDS011;44860;53.020;6.738;2023-12-28T10:57:58;20.42;;;4.15;;
59074;SDS011;44860;53.020;6.738;2023-12-28T11:03:11;20.95;;;3.72;;
59074;SDS011;44860;53.020;6.738;2023-12-28T11:05:43;17.17;;;3.55;;
59074;SDS011;44860;53.020;6.738;2023-12-28T11:08:12;21.45;;;5.25;;
59074;SDS011;44860;53.020;6.738;2023-12-28T11:10:39;19.17;;;3.70;;
59074;SDS011;44860;53.020;6.738;2023-12-28T11:13:06;21.48;;;4.40;;
59074;SDS011;44860;53.020;6.738;2023-12-28T11:15:34;20.25;;;3.88;;
59074;SDS011;44860;53.020;6.738;2023-12-28T11:18:01;22.52;;;4.45;;
59074;SDS011;44860;53.020;6.738;2023-12-28T11:20:27;24.85;;;4.90;;
59074;SDS011;44860;53.020;6.738;2023-12-28T11:22:54;20.75;;;4.45;;
59074;SDS011;44860;53.020;6.738;2023-12-28T11:25:20;22.30;;;4.60;;
59074;SDS011;44860;53.020;6.738;2023-12-28T11:27:46;21.67;;;4.80;;
59074;SDS011;44860;53.020;6.738;2023-12-28T11:30:12;20.50;;;3.88;;
59074;SDS011;44860;53.020;6.738;2023-12-28T11:32:42;21.17;;;4.18;;
59074;SDS011;44860;53.020;6.738;2023-12-28T11:35:10;22.88;;;4.28;;
59074;SDS011;44860;53.020;6.738;2023-12-28T11:37:40;19.52;;;4.53;;
59074;SDS011;44860;53.020;6.738;2023-12-28T11:40:16;24.52;;;4.45;;
59074;SDS011;44860;53.020;6.738;2023-12-28T11:42:50;19.58;;;4.15;;
59074;SDS011;44860;53.020;6.738;2023-12-28T11:45:21;21.92;;;4.00;;
59074;SDS011;44860;53.020;6.738;2023-12-28T11:48:01;19.67;;;4.28;;
59074;SDS011;44860;53.020;6.738;2023-12-28T11:50:27;19.80;;;4.30;;
59074;SDS011;44860;53.020;6.738;2023-12-28T11:52:52;19.67;;;4.07;;
59074;SDS011;44860;53.020;6.738;2023-12-28T11:55:21;22.65;;;4.00;;
59074;SDS011;44860;53.020;6.738;2023-12-28T11:57:50;17.00;;;4.22;;
59074;SDS011;44860;53.020;6.738;2023-12-28T12:00:17;17.98;;;4.15;;
59074;SDS011;44860;53.020;6.738;2023-12-28T12:02:45;21.33;;;4.03;;
59074;SDS011;44860;53.020;6.738;2023-12-28T12:05:11;19.67;;;4.25;;
59074;SDS011;44860;53.020;6.738;2023-12-28T12:07:38;25.10;;;4.72;;
59074;SDS011;44860;53.020;6.738;2023-12-28T12:10:03;19.60;;;3.78;;
59074;SDS011;44860;53.020;6.738;2023-12-28T12:12:29;24.15;;;4.43;;
59074;SDS011;44860;53.020;6.738;2023-12-28T12:14:55;26.50;;;5.40;;
59074;SDS011;44860;53.020;6.738;2023-12-28T12:17:21;21.15;;;4.35;;
59074;SDS011;44860;53.020;6.738;2023-12-28T12:19:47;23.48;;;4.43;;
59074;SDS011;44860;53.020;6.738;2023-12-28T12:22:16;19.98;;;4.32;;
59074;SDS011;44860;53.020;6.738;2023-12-28T12:24:43;22.17;;;4.75;;
59074;SDS011;44860;53.020;6.738;2023-12-28T12:27:10;21.73;;;4.47;;
59074;SDS011;44860;53.020;6.738;2023-12-28T12:29:36;22.95;;;4.70;;
59074;SDS011;44860;53.020;6.738;2023-12-28T12:32:01;21.83;;;5.35;;
59074;SDS011;44860;53.020;6.738;2023-12-28T12:34:28;21.30;;;4.95;;
59074;SDS011;44860;53.020;6.738;2023-12-28T12:36:54;20.38;;;4.32;;
59074;SDS011;44860;53.020;6.738;2023-12-28T12:39:20;24.33;;;4.95;;
59074;SDS011;44860;53.020;6.738;2023-12-28T12:41:48;25.38;;;4.60;;
59074;SDS011;44860;53.020;6.738;2023-12-28T12:44:14;19.30;;;4.53;;
59074;SDS011;44860;53.020;6.738;2023-12-28T12:46:42;27.33;;;5.28;;
59074;SDS011;44860;53.020;6.738;2023-12-28T12:49:07;19.10;;;4.57;;
59074;SDS011;44860;53.020;6.738;2023-12-28T12:51:33;27.65;;;5.72;;
59074;SDS011;44860;53.020;6.738;2023-12-28T12:53:59;23.05;;;5.18;;
59074;SDS011;44860;53.020;6.738;2023-12-28T12:56:26;23.60;;;4.78;;
59074;SDS011;44860;53.020;6.738;2023-12-28T12:58:53;28.48;;;5.22;;
59074;SDS011;44860;53.020;6.738;2023-12-28T13:01:19;24.48;;;4.80;;
59074;SDS011;44860;53.020;6.738;2023-12-28T13:03:45;21.17;;;4.47;;
59074;SDS011;44860;53.020;6.738;2023-12-28T13:06:11;18.88;;;4.85;;
59074;SDS011;44860;53.020;6.738;2023-12-28T13:08:37;22.27;;;4.45;;
59074;SDS011;44860;53.020;6.738;2023-12-28T13:11:03;24.17;;;5.13;;
59074;SDS011;44860;53.020;6.738;2023-12-28T13:13:29;20.98;;;4.07;;
59074;SDS011;44860;53.020;6.738;2023-12-28T13:15:55;25.83;;;4.70;;
59074;SDS011;44860;53.020;6.738;2023-12-28T13:18:21;25.65;;;5.07;;
59074;SDS011;44860;53.020;6.738;2023-12-28T13:20:46;27.10;;;5.25;;
59074;SDS011;44860;53.020;6.738;2023-12-28T13:23:12;20.80;;;4.60;;
59074;SDS011;44860;53.020;6.738;2023-12-28T13:25:38;21.13;;;4.88;;
59074;SDS011;44860;53.020;6.738;2023-12-28T13:28:03;25.02;;;4.78;;
59074;SDS011;44860;53.020;6.738;2023-12-28T13:30:29;22.23;;;4.45;;
59074;SDS011;44860;53.020;6.738;2023-12-28T13:32:55;28.33;;;5.70;;
59074;SDS011;44860;53.020;6.738;2023-12-28T13:35:21;24.83;;;5.10;;
59074;SDS011;44860;53.020;6.738;2023-12-28T13:37:47;26.92;;;4.93;;
59074;SDS011;44860;53.020;6.738;2023-12-28T13:40:13;21.33;;;3.90;;
59074;SDS011;44860;53.020;6.738;2023-12-28T13:42:40;25.85;;;4.95;;
59074;SDS011;44860;53.020;6.738;2023-12-28T13:45:07;25.10;;;4.57;;
59074;SDS011;44860;53.020;6.738;2023-12-28T13:47:33;23.35;;;4.35;;
59074;SDS011;44860;53.020;6.738;2023-12-28T13:49:59;27.08;;;5.45;;
59074;SDS011;44860;53.020;6.738;2023-12-28T13:52:24;23.70;;;4.75;;
59074;SDS011;44860;53.020;6.738;2023-12-28T13:54:50;21.30;;;4.43;;
59074;SDS011;44860;53.020;6.738;2023-12-28T13:57:16;20.98;;;4.65;;
59074;SDS011;44860;53.020;6.738;2023-12-28T13:59:41;21.35;;;4.35;;
59074;SDS011;44860;53.020;6.738;2023-12-28T14:02:07;23.25;;;4.90;;
59074;SDS011;44860;53.020;6.738;2023-12-28T14:04:32;20.77;;;4.40;;
59074;SDS011;44860;53.020;6.738;2023-12-28T14:06:58;21.90;;;4.07;;
59074;SDS011;44860;53.020;6.738;2023-12-28T14:09:24;25.85;;;4.90;;
59074;SDS011;44860;53.020;6.738;2023-12-28T14:11:49;20.00;;;4.43;;
59074;SDS011;44860;53.020;6.738;2023-12-28T14:14:15;22.48;;;4.57;;
59074;SDS011;44860;53.020;6.738;2023-12-28T14:16:41;23.10;;;4.55;;
59074;SDS011;44860;53.020;6.738;2023-12-28T14:19:06;20.25;;;3.85;;
59074;SDS011;44860;53.020;6.738;2023-12-28T14:21:38;21.63;;;5.07;;
59074;SDS011;44860;53.020;6.738;2023-12-28T14:24:04;18.88;;;5.03;;
59074;SDS011;44860;53.020;6.738;2023-12-28T14:26:33;25.08;;;5.10;;
59074;SDS011;44860;53.020;6.738;2023-12-28T14:28:59;18.55;;;4.43;;
59074;SDS011;44860;53.020;6.738;2023-12-28T14:31:29;20.75;;;4.65;;
59074;SDS011;44860;53.020;6.738;2023-12-28T14:33:55;23.15;;;4.63;;